sensor_id;sensor_type;location;lat;lon;timestamp;P1;durP1;ratioP1;P2;durP2;ratioP2
70535;SDS011;58089;48.752;11.338;2022-11-06T00:00:19;9.37;;;4.23;;
70535;SDS011;58089;48.752;11.338;2022-11-06T00:02:44;9.30;;;4.47;;
70535;SDS011;58089;48.752;11.338;2022-11-06T00:05:10;8.50;;;4.03;;
70535;SDS011;58089;48.752;11.338;2022-11-06T00:07:54;8.35;;;4.40;;
70535;SDS011;58089;48.752;11.338;2022-11-06T00:10:20;8.03;;;3.73;;
70535;SDS011;58089;48.752;11.338;2022-11-06T00:12:45;7.10;;;3.40;;
70535;SDS011;58089;48.752;11.338;2022-11-06T00:15:11;7.95;;;3.17;;
70535;SDS011;58089;48.752;11.338;2022-11-06T00:17:37;7.27;;;3.50;;
70535;SDS011;58089;48.752;11.338;2022-11-06T00:20:03;6.40;;;3.03;;
70535;SDS011;58089;48.752;11.338;2022-11-06T00:22:33;7.47;;;3.50;;
70535;SDS011;58089;48.752;11.338;2022-11-06T00:24:59;7.72;;;3.58;;
70535;SDS011;58089;48.752;11.338;2022-11-06T00:27:25;8.80;;;4.20;;
70535;SDS011;58089;48.752;11.338;2022-11-06T00:29:51;8.27;;;3.97;;
70535;SDS011;58089;48.752;11.338;2022-11-06T00:32:16;8.57;;;4.43;;
70535;SDS011;58089;48.752;11.338;2022-11-06T00:34:41;8.73;;;4.20;;
70535;SDS011;58089;48.752;11.338;2022-11-06T00:37:06;8.53;;;4.30;;
70535;SDS011;58089;48.752;11.338;2022-11-06T00:39:32;8.67;;;4.40;;
70535;SDS011;58089;48.752;11.338;2022-11-06T00:41:57;8.77;;;4.20;;
70535;SDS011;58089;48.752;11.338;2022-11-06T00:44:22;9.00;;;3.90;;
70535;SDS011;58089;48.752;11.338;2022-11-06T00:46:47;8.50;;;4.43;;
70535;SDS011;58089;48.752;11.338;2022-11-06T00:49:13;8.93;;;4.17;;
70535;SDS011;58089;48.752;11.338;2022-11-06T00:51:38;8.70;;;3.63;;
70535;SDS011;58089;48.752;11.338;2022-11-06T00:54:04;7.73;;;3.73;;
70535;SDS011;58089;48.752;11.338;2022-11-06T00:56:32;8.07;;;3.80;;
70535;SDS011;58089;48.752;11.338;2022-11-06T00:58:58;8.68;;;4.32;;
70535;SDS011;58089;48.752;11.338;2022-11-06T01:01:26;7.25;;;3.80;;
70535;SDS011;58089;48.752;11.338;2022-11-06T01:03:54;7.20;;;3.60;;
70535;SDS011;58089;48.752;11.338;2022-11-06T01:06:33;7.20;;;3.55;;
70535;SDS011;58089;48.752;11.338;2022-11-06T01:09:01;7.38;;;3.20;;
70535;SDS011;58089;48.752;11.338;2022-11-06T01:13:55;7.85;;;4.03;;
70535;SDS011;58089;48.752;11.338;2022-11-06T01:16:22;11.17;;;4.47;;
70535;SDS011;58089;48.752;11.338;2022-11-06T01:18:48;10.43;;;5.10;;
70535;SDS011;58089;48.752;11.338;2022-11-06T01:21:14;13.07;;;6.00;;
70535;SDS011;58089;48.752;11.338;2022-11-06T01:23:44;38.47;;;5.97;;
70535;SDS011;58089;48.752;11.338;2022-11-06T01:26:10;39.72;;;7.07;;
70535;SDS011;58089;48.752;11.338;2022-11-06T01:28:36;22.80;;;6.40;;
70535;SDS011;58089;48.752;11.338;2022-11-06T01:31:06;38.00;;;6.53;;
70535;SDS011;58089;48.752;11.338;2022-11-06T01:33:33;73.82;;;7.15;;
70535;SDS011;58089;48.752;11.338;2022-11-06T01:35:58;65.13;;;7.87;;
70535;SDS011;58089;48.752;11.338;2022-11-06T01:38:23;76.80;;;8.10;;
70535;SDS011;58089;48.752;11.338;2022-11-06T01:40:49;40.83;;;6.70;;
70535;SDS011;58089;48.752;11.338;2022-11-06T01:43:16;29.27;;;6.40;;
70535;SDS011;58089;48.752;11.338;2022-11-06T01:45:48;56.97;;;7.32;;
70535;SDS011;58089;48.752;11.338;2022-11-06T01:48:19;21.08;;;5.80;;
70535;SDS011;58089;48.752;11.338;2022-11-06T01:50:46;20.33;;;5.90;;
70535;SDS011;58089;48.752;11.338;2022-11-06T01:53:13;46.45;;;5.88;;
70535;SDS011;58089;48.752;11.338;2022-11-06T01:55:39;29.10;;;5.97;;
70535;SDS011;58089;48.752;11.338;2022-11-06T01:58:07;23.98;;;6.28;;
70535;SDS011;58089;48.752;11.338;2022-11-06T02:00:35;44.83;;;6.93;;
70535;SDS011;58089;48.752;11.338;2022-11-06T02:03:00;76.47;;;7.20;;
70535;SDS011;58089;48.752;11.338;2022-11-06T02:05:26;40.47;;;6.60;;
70535;SDS011;58089;48.752;11.338;2022-11-06T02:07:51;82.13;;;7.00;;
70535;SDS011;58089;48.752;11.338;2022-11-06T02:10:17;81.28;;;6.95;;
70535;SDS011;58089;48.752;11.338;2022-11-06T02:15:42;94.60;;;8.13;;
70535;SDS011;58089;48.752;11.338;2022-11-06T02:35:08;86.80;;;6.88;;
70535;SDS011;58089;48.752;11.338;2022-11-06T02:37:43;65.18;;;6.30;;
70535;SDS011;58089;48.752;11.338;2022-11-06T02:40:11;19.23;;;5.55;;
70535;SDS011;58089;48.752;11.338;2022-11-06T02:42:37;30.63;;;5.77;;
70535;SDS011;58089;48.752;11.338;2022-11-06T02:45:06;36.17;;;6.00;;
70535;SDS011;58089;48.752;11.338;2022-11-06T02:47:34;16.88;;;5.47;;
70535;SDS011;58089;48.752;11.338;2022-11-06T02:50:09;25.47;;;5.83;;
70535;SDS011;58089;48.752;11.338;2022-11-06T02:52:39;9.25;;;4.65;;
70535;SDS011;58089;48.752;11.338;2022-11-06T02:55:08;13.93;;;5.60;;
70535;SDS011;58089;48.752;11.338;2022-11-06T02:57:36;14.43;;;5.22;;
70535;SDS011;58089;48.752;11.338;2022-11-06T03:00:07;18.70;;;4.77;;
70535;SDS011;58089;48.752;11.338;2022-11-06T03:02:45;22.88;;;6.18;;
70535;SDS011;58089;48.752;11.338;2022-11-06T03:05:34;23.00;;;7.13;;
70535;SDS011;58089;48.752;11.338;2022-11-06T03:08:02;20.33;;;6.65;;
70535;SDS011;58089;48.752;11.338;2022-11-06T03:10:38;24.20;;;6.93;;
70535;SDS011;58089;48.752;11.338;2022-11-06T03:15:44;29.10;;;8.50;;
70535;SDS011;58089;48.752;11.338;2022-11-06T03:18:26;43.35;;;9.63;;
70535;SDS011;58089;48.752;11.338;2022-11-06T03:21:05;50.20;;;10.07;;
70535;SDS011;58089;48.752;11.338;2022-11-06T03:23:46;87.88;;;11.00;;
70535;SDS011;58089;48.752;11.338;2022-11-06T03:26:56;140.50;;;12.90;;
70535;SDS011;58089;48.752;11.338;2022-11-06T03:31:51;240.27;;;14.98;;
70535;SDS011;58089;48.752;11.338;2022-11-06T03:34:27;202.52;;;13.65;;
70535;SDS011;58089;48.752;11.338;2022-11-06T03:37:03;185.55;;;14.43;;
70535;SDS011;58089;48.752;11.338;2022-11-06T03:39:31;247.03;;;16.50;;
70535;SDS011;58089;48.752;11.338;2022-11-06T03:42:01;110.70;;;12.18;;
70535;SDS011;58089;48.752;11.338;2022-11-06T03:44:29;115.93;;;12.98;;
70535;SDS011;58089;48.752;11.338;2022-11-06T03:47:16;103.93;;;12.27;;
70535;SDS011;58089;48.752;11.338;2022-11-06T03:49:46;135.02;;;14.27;;
70535;SDS011;58089;48.752;11.338;2022-11-06T03:52:17;123.05;;;14.20;;
70535;SDS011;58089;48.752;11.338;2022-11-06T03:54:52;122.03;;;14.95;;
70535;SDS011;58089;48.752;11.338;2022-11-06T03:57:22;98.55;;;14.90;;
70535;SDS011;58089;48.752;11.338;2022-11-06T03:59:52;122.63;;;14.40;;
70535;SDS011;58089;48.752;11.338;2022-11-06T04:02:20;315.85;;;22.35;;
70535;SDS011;58089;48.752;11.338;2022-11-06T04:04:48;198.45;;;17.77;;
70535;SDS011;58089;48.752;11.338;2022-11-06T04:07:18;113.43;;;14.48;;
70535;SDS011;58089;48.752;11.338;2022-11-06T04:09:55;118.72;;;15.88;;
70535;SDS011;58089;48.752;11.338;2022-11-06T04:12:41;220.23;;;18.43;;
70535;SDS011;58089;48.752;11.338;2022-11-06T04:15:25;224.45;;;18.80;;
70535;SDS011;58089;48.752;11.338;2022-11-06T04:17:55;95.93;;;15.48;;
70535;SDS011;58089;48.752;11.338;2022-11-06T04:20:20;191.33;;;17.00;;
70535;SDS011;58089;48.752;11.338;2022-11-06T04:23:11;236.18;;;18.95;;
70535;SDS011;58089;48.752;11.338;2022-11-06T04:29:02;215.40;;;19.00;;
70535;SDS011;58089;48.752;11.338;2022-11-06T04:31:53;236.20;;;19.60;;
70535;SDS011;58089;48.752;11.338;2022-11-06T04:37:32;173.30;;;17.40;;
70535;SDS011;58089;48.752;11.338;2022-11-06T04:39:49;205.75;;;19.23;;
70535;SDS011;58089;48.752;11.338;2022-11-06T04:42:25;241.15;;;19.90;;
70535;SDS011;58089;48.752;11.338;2022-11-06T04:45:01;233.80;;;18.30;;
70535;SDS011;58089;48.752;11.338;2022-11-06T04:47:28;110.97;;;14.53;;
70535;SDS011;58089;48.752;11.338;2022-11-06T04:49:55;111.45;;;15.48;;
70535;SDS011;58089;48.752;11.338;2022-11-06T04:52:22;155.10;;;16.73;;
70535;SDS011;58089;48.752;11.338;2022-11-06T04:54:51;149.07;;;15.70;;
70535;SDS011;58089;48.752;11.338;2022-11-06T04:57:17;138.88;;;15.95;;
70535;SDS011;58089;48.752;11.338;2022-11-06T04:59:42;144.20;;;16.03;;
70535;SDS011;58089;48.752;11.338;2022-11-06T05:02:08;133.70;;;15.50;;
70535;SDS011;58089;48.752;11.338;2022-11-06T05:04:34;244.93;;;19.38;;
70535;SDS011;58089;48.752;11.338;2022-11-06T05:06:59;145.77;;;15.90;;
70535;SDS011;58089;48.752;11.338;2022-11-06T05:09:24;151.10;;;15.80;;
70535;SDS011;58089;48.752;11.338;2022-11-06T05:11:50;72.47;;;13.97;;
70535;SDS011;58089;48.752;11.338;2022-11-06T05:14:15;122.37;;;14.97;;
70535;SDS011;58089;48.752;11.338;2022-11-06T05:16:40;130.07;;;14.02;;
70535;SDS011;58089;48.752;11.338;2022-11-06T05:19:06;125.93;;;14.57;;
70535;SDS011;58089;48.752;11.338;2022-11-06T05:21:31;145.93;;;14.07;;
70535;SDS011;58089;48.752;11.338;2022-11-06T05:24:15;125.68;;;11.77;;
70535;SDS011;58089;48.752;11.338;2022-11-06T05:26:40;107.97;;;12.43;;
70535;SDS011;58089;48.752;11.338;2022-11-06T05:29:05;90.30;;;10.80;;
70535;SDS011;58089;48.752;11.338;2022-11-06T05:31:31;135.87;;;12.03;;
70535;SDS011;58089;48.752;11.338;2022-11-06T05:33:56;95.13;;;10.77;;
70535;SDS011;58089;48.752;11.338;2022-11-06T05:36:22;81.63;;;10.77;;
70535;SDS011;58089;48.752;11.338;2022-11-06T05:38:47;124.60;;;12.73;;
70535;SDS011;58089;48.752;11.338;2022-11-06T05:41:12;114.83;;;12.20;;
70535;SDS011;58089;48.752;11.338;2022-11-06T05:43:37;94.03;;;12.43;;
70535;SDS011;58089;48.752;11.338;2022-11-06T05:46:03;76.60;;;11.37;;
70535;SDS011;58089;48.752;11.338;2022-11-06T05:48:28;144.50;;;12.17;;
70535;SDS011;58089;48.752;11.338;2022-11-06T05:50:58;100.43;;;10.97;;
70535;SDS011;58089;48.752;11.338;2022-11-06T05:53:24;93.20;;;10.27;;
70535;SDS011;58089;48.752;11.338;2022-11-06T05:55:50;82.53;;;10.20;;
70535;SDS011;58089;48.752;11.338;2022-11-06T05:58:15;54.87;;;9.93;;
70535;SDS011;58089;48.752;11.338;2022-11-06T06:00:40;116.03;;;10.30;;
70535;SDS011;58089;48.752;11.338;2022-11-06T06:03:06;139.30;;;11.03;;
70535;SDS011;58089;48.752;11.338;2022-11-06T06:05:31;56.40;;;8.90;;
70535;SDS011;58089;48.752;11.338;2022-11-06T06:07:56;96.07;;;10.37;;
70535;SDS011;58089;48.752;11.338;2022-11-06T06:10:21;62.63;;;8.30;;
70535;SDS011;58089;48.752;11.338;2022-11-06T06:12:50;58.47;;;8.70;;
70535;SDS011;58089;48.752;11.338;2022-11-06T06:15:16;49.67;;;8.23;;
70535;SDS011;58089;48.752;11.338;2022-11-06T06:17:42;60.58;;;9.43;;
70535;SDS011;58089;48.752;11.338;2022-11-06T06:20:09;96.97;;;9.02;;
70535;SDS011;58089;48.752;11.338;2022-11-06T06:22:35;81.07;;;8.88;;
70535;SDS011;58089;48.752;11.338;2022-11-06T06:25:00;56.70;;;8.63;;
70535;SDS011;58089;48.752;11.338;2022-11-06T06:27:25;51.83;;;7.60;;
70535;SDS011;58089;48.752;11.338;2022-11-06T06:29:51;97.82;;;8.52;;
70535;SDS011;58089;48.752;11.338;2022-11-06T06:32:17;124.13;;;9.10;;
70535;SDS011;58089;48.752;11.338;2022-11-06T06:34:42;146.87;;;9.47;;
70535;SDS011;58089;48.752;11.338;2022-11-06T06:37:07;99.23;;;9.03;;
70535;SDS011;58089;48.752;11.338;2022-11-06T06:39:33;99.37;;;8.73;;
70535;SDS011;58089;48.752;11.338;2022-11-06T06:41:58;79.40;;;7.93;;
70535;SDS011;58089;48.752;11.338;2022-11-06T06:44:23;123.57;;;9.07;;
70535;SDS011;58089;48.752;11.338;2022-11-06T06:46:48;97.50;;;8.17;;
70535;SDS011;58089;48.752;11.338;2022-11-06T06:49:14;58.67;;;7.97;;
70535;SDS011;58089;48.752;11.338;2022-11-06T06:51:39;39.93;;;6.97;;
70535;SDS011;58089;48.752;11.338;2022-11-06T06:54:04;58.87;;;7.90;;
70535;SDS011;58089;48.752;11.338;2022-11-06T06:56:29;55.40;;;7.47;;
70535;SDS011;58089;48.752;11.338;2022-11-06T06:58:55;89.53;;;8.07;;
70535;SDS011;58089;48.752;11.338;2022-11-06T07:01:20;137.43;;;7.87;;
70535;SDS011;58089;48.752;11.338;2022-11-06T07:03:45;96.28;;;7.57;;
70535;SDS011;58089;48.752;11.338;2022-11-06T07:06:11;99.03;;;8.27;;
70535;SDS011;58089;48.752;11.338;2022-11-06T07:08:36;70.40;;;7.70;;
70535;SDS011;58089;48.752;11.338;2022-11-06T07:11:03;66.73;;;7.77;;
70535;SDS011;58089;48.752;11.338;2022-11-06T07:13:29;58.95;;;6.97;;
70535;SDS011;58089;48.752;11.338;2022-11-06T07:15:54;72.23;;;7.97;;
70535;SDS011;58089;48.752;11.338;2022-11-06T07:18:20;74.13;;;8.20;;
70535;SDS011;58089;48.752;11.338;2022-11-06T07:20:45;46.50;;;8.03;;
70535;SDS011;58089;48.752;11.338;2022-11-06T07:23:11;68.80;;;9.00;;
70535;SDS011;58089;48.752;11.338;2022-11-06T07:25:36;57.40;;;8.00;;
70535;SDS011;58089;48.752;11.338;2022-11-06T07:28:02;51.87;;;7.57;;
70535;SDS011;58089;48.752;11.338;2022-11-06T07:30:28;92.57;;;8.60;;
70535;SDS011;58089;48.752;11.338;2022-11-06T07:32:53;61.15;;;8.05;;
70535;SDS011;58089;48.752;11.338;2022-11-06T07:35:18;72.07;;;8.53;;
70535;SDS011;58089;48.752;11.338;2022-11-06T07:37:44;57.13;;;7.93;;
70535;SDS011;58089;48.752;11.338;2022-11-06T07:40:09;81.23;;;9.27;;
70535;SDS011;58089;48.752;11.338;2022-11-06T07:42:35;99.30;;;9.90;;
70535;SDS011;58089;48.752;11.338;2022-11-06T07:45:00;36.57;;;7.30;;
70535;SDS011;58089;48.752;11.338;2022-11-06T07:47:26;50.57;;;7.70;;
70535;SDS011;58089;48.752;11.338;2022-11-06T07:49:54;71.10;;;8.45;;
70535;SDS011;58089;48.752;11.338;2022-11-06T07:52:20;81.85;;;9.30;;
70535;SDS011;58089;48.752;11.338;2022-11-06T07:54:45;39.03;;;8.23;;
70535;SDS011;58089;48.752;11.338;2022-11-06T07:57:10;52.77;;;6.80;;
70535;SDS011;58089;48.752;11.338;2022-11-06T07:59:35;68.47;;;7.40;;
70535;SDS011;58089;48.752;11.338;2022-11-06T08:02:01;56.97;;;7.67;;
70535;SDS011;58089;48.752;11.338;2022-11-06T08:04:26;80.60;;;8.53;;
70535;SDS011;58089;48.752;11.338;2022-11-06T08:06:51;52.97;;;8.20;;
70535;SDS011;58089;48.752;11.338;2022-11-06T08:09:16;64.40;;;13.13;;
70535;SDS011;58089;48.752;11.338;2022-11-06T08:11:42;54.67;;;15.63;;
70535;SDS011;58089;48.752;11.338;2022-11-06T08:14:07;35.10;;;9.33;;
70535;SDS011;58089;48.752;11.338;2022-11-06T08:16:34;73.72;;;9.50;;
70535;SDS011;58089;48.752;11.338;2022-11-06T08:18:59;50.20;;;7.30;;
70535;SDS011;58089;48.752;11.338;2022-11-06T08:21:25;53.83;;;9.10;;
70535;SDS011;58089;48.752;11.338;2022-11-06T08:23:50;55.83;;;10.70;;
70535;SDS011;58089;48.752;11.338;2022-11-06T08:26:15;66.10;;;10.13;;
70535;SDS011;58089;48.752;11.338;2022-11-06T08:28:41;56.40;;;8.70;;
70535;SDS011;58089;48.752;11.338;2022-11-06T08:31:07;35.57;;;7.73;;
70535;SDS011;58089;48.752;11.338;2022-11-06T08:33:33;68.50;;;9.00;;
70535;SDS011;58089;48.752;11.338;2022-11-06T08:36:00;44.08;;;8.52;;
70535;SDS011;58089;48.752;11.338;2022-11-06T08:38:27;43.72;;;9.25;;
70535;SDS011;58089;48.752;11.338;2022-11-06T08:40:52;51.57;;;8.90;;
70535;SDS011;58089;48.752;11.338;2022-11-06T08:43:17;52.43;;;9.33;;
70535;SDS011;58089;48.752;11.338;2022-11-06T08:45:43;45.50;;;8.30;;
70535;SDS011;58089;48.752;11.338;2022-11-06T08:48:08;42.70;;;8.40;;
70535;SDS011;58089;48.752;11.338;2022-11-06T08:50:35;46.80;;;9.40;;
70535;SDS011;58089;48.752;11.338;2022-11-06T08:53:01;45.05;;;9.30;;
70535;SDS011;58089;48.752;11.338;2022-11-06T08:55:31;35.72;;;8.77;;
70535;SDS011;58089;48.752;11.338;2022-11-06T08:57:57;37.38;;;10.18;;
70535;SDS011;58089;48.752;11.338;2022-11-06T09:00:23;39.73;;;10.77;;
70535;SDS011;58089;48.752;11.338;2022-11-06T09:02:49;46.83;;;8.97;;
70535;SDS011;58089;48.752;11.338;2022-11-06T09:05:15;41.00;;;10.27;;
70535;SDS011;58089;48.752;11.338;2022-11-06T09:07:40;35.37;;;10.67;;
70535;SDS011;58089;48.752;11.338;2022-11-06T09:10:06;29.73;;;9.83;;
70535;SDS011;58089;48.752;11.338;2022-11-06T09:12:31;47.30;;;10.35;;
70535;SDS011;58089;48.752;11.338;2022-11-06T09:14:56;35.93;;;9.73;;
70535;SDS011;58089;48.752;11.338;2022-11-06T09:17:22;28.97;;;9.47;;
70535;SDS011;58089;48.752;11.338;2022-11-06T09:19:51;29.90;;;10.10;;
70535;SDS011;58089;48.752;11.338;2022-11-06T09:22:16;32.97;;;10.73;;
70535;SDS011;58089;48.752;11.338;2022-11-06T09:24:42;33.57;;;9.03;;
70535;SDS011;58089;48.752;11.338;2022-11-06T09:27:07;32.50;;;9.87;;
70535;SDS011;58089;48.752;11.338;2022-11-06T09:29:32;25.67;;;9.60;;
70535;SDS011;58089;48.752;11.338;2022-11-06T09:31:58;30.00;;;9.57;;
70535;SDS011;58089;48.752;11.338;2022-11-06T09:34:23;26.73;;;9.87;;
70535;SDS011;58089;48.752;11.338;2022-11-06T09:36:48;28.23;;;9.33;;
70535;SDS011;58089;48.752;11.338;2022-11-06T09:39:14;26.00;;;10.10;;
70535;SDS011;58089;48.752;11.338;2022-11-06T09:41:56;22.90;;;9.63;;
70535;SDS011;58089;48.752;11.338;2022-11-06T09:44:43;25.27;;;9.82;;
70535;SDS011;58089;48.752;11.338;2022-11-06T09:47:18;23.07;;;9.73;;
70535;SDS011;58089;48.752;11.338;2022-11-06T09:49:47;25.10;;;9.18;;
70535;SDS011;58089;48.752;11.338;2022-11-06T09:54:52;25.88;;;10.35;;
70535;SDS011;58089;48.752;11.338;2022-11-06T09:57:20;26.55;;;10.07;;
70535;SDS011;58089;48.752;11.338;2022-11-06T09:59:53;26.60;;;11.67;;
70535;SDS011;58089;48.752;11.338;2022-11-06T10:05:09;26.98;;;11.93;;
70535;SDS011;58089;48.752;11.338;2022-11-06T10:07:49;26.20;;;12.43;;
70535;SDS011;58089;48.752;11.338;2022-11-06T10:10:16;25.25;;;11.25;;
70535;SDS011;58089;48.752;11.338;2022-11-06T10:18:11;27.00;;;12.10;;
70535;SDS011;58089;48.752;11.338;2022-11-06T10:23:46;28.38;;;12.52;;
70535;SDS011;58089;48.752;11.338;2022-11-06T10:28:51;27.77;;;12.60;;
70535;SDS011;58089;48.752;11.338;2022-11-06T10:33:59;27.83;;;13.35;;
70535;SDS011;58089;48.752;11.338;2022-11-06T10:36:45;28.88;;;13.80;;
70535;SDS011;58089;48.752;11.338;2022-11-06T10:39:20;24.50;;;12.17;;
70535;SDS011;58089;48.752;11.338;2022-11-06T10:41:52;26.52;;;12.25;;
70535;SDS011;58089;48.752;11.338;2022-11-06T10:44:41;27.67;;;13.57;;
70535;SDS011;58089;48.752;11.338;2022-11-06T10:47:20;27.48;;;13.05;;
70535;SDS011;58089;48.752;11.338;2022-11-06T10:49:48;28.55;;;13.10;;
70535;SDS011;58089;48.752;11.338;2022-11-06T10:55:28;28.40;;;12.82;;
70535;SDS011;58089;48.752;11.338;2022-11-06T10:57:55;25.23;;;12.43;;
70535;SDS011;58089;48.752;11.338;2022-11-06T11:00:24;25.10;;;11.98;;
70535;SDS011;58089;48.752;11.338;2022-11-06T11:02:56;26.47;;;12.77;;
70535;SDS011;58089;48.752;11.338;2022-11-06T11:05:23;25.83;;;12.57;;
70535;SDS011;58089;48.752;11.338;2022-11-06T11:07:50;22.40;;;11.70;;
70535;SDS011;58089;48.752;11.338;2022-11-06T11:12:46;23.33;;;11.15;;
70535;SDS011;58089;48.752;11.338;2022-11-06T11:15:14;21.77;;;11.30;;
70535;SDS011;58089;48.752;11.338;2022-11-06T11:17:41;23.35;;;11.02;;
70535;SDS011;58089;48.752;11.338;2022-11-06T11:20:27;20.30;;;11.03;;
70535;SDS011;58089;48.752;11.338;2022-11-06T11:23:03;21.35;;;11.57;;
70535;SDS011;58089;48.752;11.338;2022-11-06T11:25:43;20.45;;;11.15;;
70535;SDS011;58089;48.752;11.338;2022-11-06T11:28:29;19.95;;;10.95;;
70535;SDS011;58089;48.752;11.338;2022-11-06T11:30:59;21.60;;;11.07;;
70535;SDS011;58089;48.752;11.338;2022-11-06T11:33:28;21.17;;;11.33;;
70535;SDS011;58089;48.752;11.338;2022-11-06T11:35:54;23.67;;;11.90;;
70535;SDS011;58089;48.752;11.338;2022-11-06T11:38:19;20.73;;;11.30;;
70535;SDS011;58089;48.752;11.338;2022-11-06T11:40:46;20.90;;;11.63;;
70535;SDS011;58089;48.752;11.338;2022-11-06T11:43:28;20.20;;;10.90;;
70535;SDS011;58089;48.752;11.338;2022-11-06T11:46:00;17.27;;;9.18;;
70535;SDS011;58089;48.752;11.338;2022-11-06T11:53:48;20.88;;;9.88;;
70535;SDS011;58089;48.752;11.338;2022-11-06T11:56:17;16.40;;;8.43;;
70535;SDS011;58089;48.752;11.338;2022-11-06T11:58:54;15.23;;;8.93;;
70535;SDS011;58089;48.752;11.338;2022-11-06T12:04:06;16.20;;;9.13;;
70535;SDS011;58089;48.752;11.338;2022-11-06T12:06:47;18.02;;;8.95;;
70535;SDS011;58089;48.752;11.338;2022-11-06T12:09:14;16.27;;;8.55;;
70535;SDS011;58089;48.752;11.338;2022-11-06T12:11:41;17.80;;;9.23;;
70535;SDS011;58089;48.752;11.338;2022-11-06T12:16:54;18.63;;;9.88;;
70535;SDS011;58089;48.752;11.338;2022-11-06T12:19:23;17.23;;;9.15;;
70535;SDS011;58089;48.752;11.338;2022-11-06T12:21:52;17.43;;;9.37;;
70535;SDS011;58089;48.752;11.338;2022-11-06T12:24:20;19.33;;;9.25;;
70535;SDS011;58089;48.752;11.338;2022-11-06T12:26:57;16.92;;;9.35;;
70535;SDS011;58089;48.752;11.338;2022-11-06T12:29:35;17.77;;;10.65;;
70535;SDS011;58089;48.752;11.338;2022-11-06T12:32:25;19.67;;;10.60;;
70535;SDS011;58089;48.752;11.338;2022-11-06T12:35:00;16.70;;;9.57;;
70535;SDS011;58089;48.752;11.338;2022-11-06T12:40:19;16.85;;;9.20;;
70535;SDS011;58089;48.752;11.338;2022-11-06T12:42:57;15.23;;;8.23;;
70535;SDS011;58089;48.752;11.338;2022-11-06T12:45:25;17.00;;;9.27;;
70535;SDS011;58089;48.752;11.338;2022-11-06T12:48:26;16.37;;;9.60;;
70535;SDS011;58089;48.752;11.338;2022-11-06T12:51:20;17.83;;;9.48;;
70535;SDS011;58089;48.752;11.338;2022-11-06T12:56:31;16.70;;;9.57;;
70535;SDS011;58089;48.752;11.338;2022-11-06T12:59:13;15.38;;;8.57;;
70535;SDS011;58089;48.752;11.338;2022-11-06T13:07:48;16.30;;;9.40;;
70535;SDS011;58089;48.752;11.338;2022-11-06T13:15:51;16.00;;;9.20;;
70535;SDS011;58089;48.752;11.338;2022-11-06T13:18:35;16.80;;;9.43;;
70535;SDS011;58089;48.752;11.338;2022-11-06T13:23:53;17.05;;;9.77;;
70535;SDS011;58089;48.752;11.338;2022-11-06T13:28:58;18.30;;;10.23;;
70535;SDS011;58089;48.752;11.338;2022-11-06T13:31:36;18.10;;;10.63;;
70535;SDS011;58089;48.752;11.338;2022-11-06T13:34:03;17.63;;;10.27;;
70535;SDS011;58089;48.752;11.338;2022-11-06T13:36:29;19.48;;;10.43;;
70535;SDS011;58089;48.752;11.338;2022-11-06T13:38:59;20.93;;;11.73;;
70535;SDS011;58089;48.752;11.338;2022-11-06T13:41:31;20.70;;;11.23;;
70535;SDS011;58089;48.752;11.338;2022-11-06T13:46:38;17.05;;;9.77;;
70535;SDS011;58089;48.752;11.338;2022-11-06T13:52:01;17.10;;;10.25;;
70535;SDS011;58089;48.752;11.338;2022-11-06T13:59:59;17.05;;;9.57;;
70535;SDS011;58089;48.752;11.338;2022-11-06T14:08:13;15.23;;;9.60;;
70535;SDS011;58089;48.752;11.338;2022-11-06T14:10:46;15.73;;;9.88;;
70535;SDS011;58089;48.752;11.338;2022-11-06T14:13:33;16.25;;;10.15;;
70535;SDS011;58089;48.752;11.338;2022-11-06T14:16:04;15.68;;;10.02;;
70535;SDS011;58089;48.752;11.338;2022-11-06T14:18:31;15.65;;;9.55;;
70535;SDS011;58089;48.752;11.338;2022-11-06T14:24:06;14.95;;;9.52;;
70535;SDS011;58089;48.752;11.338;2022-11-06T14:26:40;15.07;;;10.27;;
70535;SDS011;58089;48.752;11.338;2022-11-06T14:32:00;15.23;;;9.80;;
70535;SDS011;58089;48.752;11.338;2022-11-06T14:36:53;15.70;;;10.60;;
70535;SDS011;58089;48.752;11.338;2022-11-06T14:39:18;14.23;;;10.33;;
70535;SDS011;58089;48.752;11.338;2022-11-06T14:42:17;16.52;;;12.02;;
70535;SDS011;58089;48.752;11.338;2022-11-06T14:44:56;15.98;;;10.48;;
70535;SDS011;58089;48.752;11.338;2022-11-06T14:49:57;15.70;;;9.50;;
70535;SDS011;58089;48.752;11.338;2022-11-06T14:52:25;15.30;;;9.23;;
70535;SDS011;58089;48.752;11.338;2022-11-06T14:54:55;17.88;;;10.68;;
70535;SDS011;58089;48.752;11.338;2022-11-06T14:57:37;14.63;;;9.32;;
70535;SDS011;58089;48.752;11.338;2022-11-06T15:00:07;14.10;;;9.13;;
70535;SDS011;58089;48.752;11.338;2022-11-06T15:02:35;12.77;;;8.68;;
70535;SDS011;58089;48.752;11.338;2022-11-06T15:05:02;13.57;;;8.55;;
70535;SDS011;58089;48.752;11.338;2022-11-06T15:10:04;15.73;;;9.50;;
70535;SDS011;58089;48.752;11.338;2022-11-06T15:15:27;15.98;;;9.50;;
70535;SDS011;58089;48.752;11.338;2022-11-06T15:17:53;18.50;;;10.57;;
70535;SDS011;58089;48.752;11.338;2022-11-06T15:20:27;17.58;;;11.02;;
70535;SDS011;58089;48.752;11.338;2022-11-06T15:23:03;16.38;;;10.93;;
70535;SDS011;58089;48.752;11.338;2022-11-06T15:25:34;16.10;;;10.27;;
70535;SDS011;58089;48.752;11.338;2022-11-06T15:28:10;16.73;;;10.90;;
70535;SDS011;58089;48.752;11.338;2022-11-06T15:30:58;21.33;;;13.07;;
70535;SDS011;58089;48.752;11.338;2022-11-06T15:36:11;21.90;;;12.75;;
70535;SDS011;58089;48.752;11.338;2022-11-06T15:38:38;21.67;;;13.55;;
70535;SDS011;58089;48.752;11.338;2022-11-06T15:41:06;18.88;;;12.43;;
70535;SDS011;58089;48.752;11.338;2022-11-06T15:43:35;19.07;;;11.87;;
70535;SDS011;58089;48.752;11.338;2022-11-06T15:46:03;18.70;;;11.82;;
70535;SDS011;58089;48.752;11.338;2022-11-06T15:48:43;19.40;;;13.05;;
70535;SDS011;58089;48.752;11.338;2022-11-06T15:53:50;19.83;;;12.13;;
70535;SDS011;58089;48.752;11.338;2022-11-06T15:56:16;21.73;;;13.17;;
70535;SDS011;58089;48.752;11.338;2022-11-06T15:58:44;21.88;;;13.32;;
70535;SDS011;58089;48.752;11.338;2022-11-06T16:01:10;21.30;;;13.03;;
70535;SDS011;58089;48.752;11.338;2022-11-06T16:03:49;21.80;;;13.83;;
70535;SDS011;58089;48.752;11.338;2022-11-06T16:06:16;23.52;;;13.20;;
70535;SDS011;58089;48.752;11.338;2022-11-06T16:08:41;22.17;;;12.77;;
70535;SDS011;58089;48.752;11.338;2022-11-06T16:11:09;19.63;;;11.73;;
70535;SDS011;58089;48.752;11.338;2022-11-06T16:13:36;20.30;;;11.82;;
70535;SDS011;58089;48.752;11.338;2022-11-06T16:16:01;18.83;;;11.33;;
70535;SDS011;58089;48.752;11.338;2022-11-06T16:18:28;17.43;;;10.80;;
70535;SDS011;58089;48.752;11.338;2022-11-06T16:26:06;16.87;;;10.33;;
70535;SDS011;58089;48.752;11.338;2022-11-06T16:28:33;18.45;;;10.38;;
70535;SDS011;58089;48.752;11.338;2022-11-06T16:31:13;21.63;;;12.93;;
70535;SDS011;58089;48.752;11.338;2022-11-06T16:33:52;26.33;;;16.07;;
70535;SDS011;58089;48.752;11.338;2022-11-06T16:36:19;25.67;;;16.25;;
70535;SDS011;58089;48.752;11.338;2022-11-06T16:38:44;30.23;;;17.63;;
70535;SDS011;58089;48.752;11.338;2022-11-06T16:41:11;49.38;;;29.73;;
70535;SDS011;58089;48.752;11.338;2022-11-06T16:44:19;37.83;;;21.33;;